createdAt,value
2018-06-02T00:00:38.340Z,1.83
2018-06-02T00:03:07.929Z,1.80
2018-06-02T00:05:37.412Z,2.10
2018-06-02T00:08:06.884Z,1.90
2018-06-02T00:10:36.879Z,2.00
2018-06-02T00:13:06.321Z,2.00
2018-06-02T00:15:35.792Z,2.00
2018-06-02T00:18:05.232Z,1.83
2018-06-02T00:20:34.685Z,2.10
2018-06-02T00:23:04.288Z,1.93
2018-06-02T00:25:33.758Z,2.00
2018-06-02T00:28:03.224Z,1.70
2018-06-02T00:30:32.765Z,1.90
2018-06-02T00:33:02.355Z,2.50
2018-06-02T00:35:31.896Z,2.17
2018-06-02T00:38:01.459Z,2.00
2018-06-02T00:40:31.808Z,1.97
2018-06-02T00:43:01.312Z,1.97
2018-06-02T00:45:30.863Z,1.97
2018-06-02T00:48:00.414Z,2.13
2018-06-02T00:50:31.128Z,2.17
2018-06-02T00:53:00.636Z,1.93
2018-06-02T00:55:30.537Z,1.90
2018-06-02T00:58:00.073Z,1.77
2018-06-02T01:00:29.705Z,2.47
2018-06-02T01:02:59.107Z,2.30
2018-06-02T01:05:29.143Z,2.00
2018-06-02T01:07:58.722Z,1.90
2018-06-02T01:10:28.153Z,1.80
2018-06-02T01:12:57.584Z,1.60
2018-06-02T01:15:27.616Z,1.60
2018-06-02T01:17:56.816Z,2.00
2018-06-02T01:20:26.697Z,1.47
2018-06-02T01:22:56.739Z,2.10
2018-06-02T01:25:27.061Z,1.80
2018-06-02T01:27:56.298Z,1.40
2018-06-02T01:30:25.896Z,1.90
2018-06-02T01:32:55.520Z,1.87
2018-06-02T01:35:25.079Z,2.07
2018-06-02T01:37:54.586Z,2.37
2018-06-02T01:40:23.796Z,2.30
2018-06-02T01:42:53.816Z,1.83
2018-06-02T01:45:23.500Z,1.83
2018-06-02T01:47:52.958Z,1.77
2018-06-02T01:50:22.172Z,1.63
2018-06-02T01:52:51.745Z,2.10
2018-06-02T01:55:21.720Z,1.80
2018-06-02T01:57:52.099Z,1.73
2018-06-02T02:00:21.798Z,1.87
2018-06-02T02:02:51.867Z,1.80
2018-06-02T02:05:22.193Z,1.90
2018-06-02T02:07:51.777Z,1.80
2018-06-02T02:10:21.356Z,1.57
2018-06-02T02:12:53.649Z,1.90
2018-06-02T02:15:24.058Z,1.73
2018-06-02T02:17:53.622Z,1.80
2018-06-02T02:20:23.184Z,2.03
2018-06-02T02:22:52.713Z,1.87
2018-06-02T02:25:22.173Z,1.90
2018-06-02T02:27:51.708Z,1.83
2018-06-02T02:30:21.680Z,1.90
2018-06-02T02:32:51.649Z,2.20
2018-06-02T02:35:21.972Z,1.93
2018-06-02T02:37:52.118Z,2.10
2018-06-02T02:40:21.663Z,1.80
2018-06-02T02:42:51.095Z,1.80
2018-06-02T02:45:20.520Z,2.03
2018-06-02T02:47:49.993Z,1.53
2018-06-02T02:50:19.429Z,2.10
2018-06-02T02:52:49.233Z,1.80
2018-06-02T02:55:18.708Z,2.10
2018-06-02T02:57:48.073Z,1.63
2018-06-02T03:00:17.548Z,1.60
2018-06-02T03:02:47.018Z,1.70
2018-06-02T03:05:16.513Z,1.77
2018-06-02T03:07:45.737Z,2.03
2018-06-02T03:10:15.340Z,1.90
2018-06-02T03:12:44.776Z,1.80
2018-06-02T03:15:14.024Z,2.00
2018-06-02T03:17:43.660Z,1.93
2018-06-02T03:20:13.447Z,1.80
2018-06-02T03:22:42.974Z,1.70
2018-06-02T03:25:12.604Z,1.87
2018-06-02T03:27:42.153Z,1.67
2018-06-02T03:30:11.788Z,1.70
2018-06-02T03:32:41.260Z,2.17
2018-06-02T03:35:10.729Z,1.60
2018-06-02T03:37:40.849Z,1.70
2018-06-02T03:40:11.180Z,1.67
2018-06-02T03:42:40.869Z,1.97
2018-06-02T03:45:10.329Z,1.77
2018-06-02T03:47:39.806Z,1.80
2018-06-02T03:50:09.752Z,1.67
2018-06-02T03:52:39.288Z,1.60
2018-06-02T03:55:08.842Z,2.50
2018-06-02T03:57:38.733Z,2.00
2018-06-02T04:00:08.348Z,1.80
2018-06-02T04:02:38.496Z,1.83
2018-06-02T04:05:07.988Z,1.60
2018-06-02T04:07:37.513Z,1.80
2018-06-02T04:10:07.108Z,1.87
2018-06-02T04:12:36.816Z,1.70
2018-06-02T04:15:06.428Z,1.70
2018-06-02T04:17:36.073Z,1.70
2018-06-02T04:20:07.145Z,1.70
2018-06-02T04:22:36.694Z,2.30
2018-06-02T04:25:06.164Z,1.80
2018-06-02T04:27:36.456Z,2.00
2018-06-02T04:30:06.044Z,1.87
2018-06-02T04:32:35.664Z,1.70
2018-06-02T04:35:05.271Z,1.87
2018-06-02T04:37:34.798Z,1.87
2018-06-02T04:40:04.974Z,1.77
2018-06-02T04:42:34.545Z,1.70
2018-06-02T04:45:05.042Z,2.10
2018-06-02T04:47:34.620Z,2.00
2018-06-02T04:50:03.978Z,1.63
2018-06-02T04:52:33.590Z,1.90
2018-06-02T04:55:03.366Z,1.87
2018-06-02T04:57:32.577Z,1.80
2018-06-02T05:00:02.016Z,1.70
2018-06-02T05:02:31.228Z,1.90
2018-06-02T05:05:00.708Z,1.60
2018-06-02T05:07:31.701Z,2.10
2018-06-02T05:10:02.238Z,1.60
2018-06-02T05:12:32.301Z,2.10
2018-06-02T05:15:01.814Z,2.13
2018-06-02T05:17:32.341Z,1.80
2018-06-02T05:20:02.776Z,1.80
2018-06-02T05:22:32.324Z,1.80
2018-06-02T05:25:01.540Z,2.00
2018-06-02T05:27:31.745Z,1.67
2018-06-02T05:30:02.368Z,2.10
2018-06-02T05:32:31.806Z,1.83
2018-06-02T05:35:02.944Z,1.90
2018-06-02T05:37:32.533Z,1.90
2018-06-02T05:40:01.964Z,1.97
2018-06-02T05:42:31.528Z,1.80
2018-06-02T05:45:01.072Z,1.70
2018-06-02T05:47:30.548Z,2.07
2018-06-02T05:49:59.765Z,2.00
2018-06-02T05:52:28.972Z,2.20
2018-06-02T05:54:58.565Z,1.97
2018-06-02T05:57:28.069Z,1.87
2018-06-02T05:59:57.730Z,2.20
2018-06-02T06:02:26.912Z,2.00
2018-06-02T06:04:56.597Z,1.90
2018-06-02T06:07:26.111Z,2.63
2018-06-02T06:09:55.725Z,2.03
2018-06-02T06:12:26.142Z,2.27
2018-06-02T06:14:56.194Z,2.53
2018-06-02T06:17:25.880Z,2.37
2018-06-02T06:19:55.321Z,2.40
2018-06-02T06:22:24.802Z,2.40
2018-06-02T06:24:54.312Z,2.63
2018-06-02T06:27:23.816Z,2.70
2018-06-02T06:29:54.053Z,2.90
2018-06-02T06:32:23.652Z,2.73
2018-06-02T06:34:53.272Z,2.60
2018-06-02T06:37:22.795Z,2.70
2018-06-02T06:39:52.284Z,2.70
2018-06-02T06:42:21.717Z,2.90
2018-06-02T06:44:51.939Z,2.87
2018-06-02T06:47:21.213Z,3.00
2018-06-02T06:49:50.749Z,3.27
2018-06-02T06:52:20.012Z,2.90
2018-06-02T06:54:49.580Z,3.10
2018-06-02T06:57:19.048Z,3.00
2018-06-02T06:59:48.681Z,2.70
2018-06-02T07:02:18.312Z,2.93
2018-06-02T07:04:47.807Z,3.10
2018-06-02T07:07:17.295Z,2.90
2018-06-02T07:09:46.811Z,3.00
2018-06-02T07:12:16.416Z,3.10
2018-06-02T07:14:45.944Z,2.80
2018-06-02T07:17:15.433Z,2.93
2018-06-02T07:19:44.969Z,3.13
2018-06-02T07:22:14.892Z,2.90
2018-06-02T07:24:44.576Z,3.20
2018-06-02T07:27:13.837Z,3.10
2018-06-02T07:29:43.448Z,3.53
2018-06-02T07:32:12.924Z,3.20
2018-06-02T07:34:45.993Z,2.80
2018-06-02T07:37:15.519Z,3.50
2018-06-02T07:39:45.332Z,3.17
2018-06-02T07:42:14.816Z,2.93
2018-06-02T07:44:44.108Z,2.80
2018-06-02T07:47:13.312Z,3.40
2018-06-02T07:49:42.790Z,2.80
2018-06-02T07:52:13.340Z,3.40
2018-06-02T07:54:43.746Z,3.20
2018-06-02T07:57:12.954Z,3.50
2018-06-02T07:59:42.534Z,3.07
2018-06-02T08:02:12.144Z,3.63
2018-06-02T08:04:41.755Z,3.37
2018-06-02T08:07:10.966Z,3.40
2018-06-02T08:09:40.449Z,2.90
2018-06-02T08:12:11.000Z,3.33
2018-06-02T08:14:40.849Z,3.33
2018-06-02T08:17:10.429Z,3.08
2018-06-02T08:19:39.785Z,3.40
2018-06-02T08:22:09.342Z,3.33
2018-06-02T08:24:38.851Z,3.37
2018-06-02T08:27:08.337Z,3.78
2018-06-02T08:29:38.350Z,3.65
2018-06-02T08:32:07.968Z,3.37
2018-06-02T08:34:37.527Z,3.67
2018-06-02T08:37:06.750Z,3.10
2018-06-02T08:39:36.023Z,3.37
2018-06-02T08:42:05.500Z,3.67
2018-06-02T08:44:35.000Z,3.40
2018-06-02T08:47:04.648Z,3.50
2018-06-02T08:49:35.385Z,3.78
2018-06-02T08:52:04.636Z,3.37
2018-06-02T08:54:34.193Z,3.83
2018-06-02T08:57:03.666Z,3.70
2018-06-02T08:59:33.188Z,3.67
2018-06-02T09:02:02.923Z,3.90
2018-06-02T09:04:32.356Z,3.67
2018-06-02T09:07:01.794Z,4.07
2018-06-02T09:09:31.261Z,3.75
2018-06-02T09:12:00.708Z,3.60
2018-06-02T09:14:30.344Z,3.92
2018-06-02T09:16:59.952Z,3.53
2018-06-02T09:19:30.204Z,3.95
2018-06-02T09:21:59.892Z,3.90
2018-06-02T09:24:29.148Z,3.92
2018-06-02T09:26:58.356Z,3.78
2018-06-02T09:29:27.560Z,4.22
2018-06-02T09:31:57.113Z,4.03
2018-06-02T09:34:26.365Z,4.25
2018-06-02T09:36:55.628Z,4.12
2018-06-02T09:39:25.147Z,3.80
2018-06-02T09:41:54.632Z,4.10
2018-06-02T09:44:24.960Z,3.75
2018-06-02T09:46:54.572Z,3.97
2018-06-02T09:49:25.021Z,4.25
2018-06-02T09:51:54.515Z,3.62
2018-06-02T09:54:24.024Z,3.90
2018-06-02T09:56:53.537Z,4.20
2018-06-02T09:59:23.648Z,3.80
2018-06-02T10:01:53.296Z,4.03
2018-06-02T10:04:22.507Z,3.80
2018-06-02T10:06:51.986Z,3.60
2018-06-02T10:09:21.457Z,3.53
2018-06-02T10:11:51.000Z,3.67
2018-06-02T10:14:20.634Z,4.40
2018-06-02T10:16:50.121Z,3.33
2018-06-02T10:19:19.751Z,3.62
2018-06-02T10:21:49.236Z,4.22
2018-06-02T10:24:18.844Z,3.60
2018-06-02T10:26:48.461Z,3.37
2018-06-02T10:29:17.976Z,3.53
2018-06-02T10:31:48.148Z,3.37
2018-06-02T10:34:17.439Z,3.37
2018-06-02T10:36:47.596Z,3.30
2018-06-02T10:39:18.172Z,3.37
2018-06-02T10:41:47.861Z,3.60
2018-06-02T10:44:17.433Z,3.70
2018-06-02T10:46:46.990Z,3.50
2018-06-02T10:49:16.192Z,3.92
2018-06-02T10:51:45.636Z,4.07
2018-06-02T10:54:14.940Z,3.50
2018-06-02T10:56:44.625Z,3.47
2018-06-02T10:59:14.116Z,3.78
2018-06-02T11:01:43.334Z,3.47
2018-06-02T11:04:12.959Z,4.28
2018-06-02T11:06:42.550Z,3.87
2018-06-02T11:09:11.997Z,3.47
2018-06-02T11:11:41.472Z,3.53
2018-06-02T11:14:11.712Z,3.47
2018-06-02T11:16:41.168Z,3.92
2018-06-02T11:19:11.373Z,3.45
2018-06-02T11:21:40.928Z,3.10
2018-06-02T11:24:10.441Z,3.58
2018-06-02T11:26:39.952Z,3.83
2018-06-02T11:29:09.460Z,3.92
2018-06-02T11:31:38.975Z,4.10
2018-06-02T11:34:08.440Z,3.95
2018-06-02T11:36:37.989Z,3.83
2018-06-02T11:39:07.700Z,3.97
2018-06-02T11:41:37.062Z,3.97
2018-06-02T11:44:06.647Z,3.53
2018-06-02T11:46:35.830Z,3.47
2018-06-02T11:49:05.340Z,3.55
2018-06-02T11:51:34.859Z,3.62
2018-06-02T11:54:04.344Z,3.47
2018-06-02T11:56:33.877Z,4.05
2018-06-02T11:59:03.412Z,4.20
2018-06-02T12:01:32.884Z,4.20
2018-06-02T12:04:02.408Z,4.30
2018-06-02T12:06:32.629Z,4.43
2018-06-02T12:09:02.063Z,4.60
2018-06-02T12:11:31.327Z,4.28
2018-06-02T12:14:01.092Z,5.07
2018-06-02T12:16:30.563Z,4.30
2018-06-02T12:18:59.776Z,5.05
2018-06-02T12:21:28.980Z,4.35
2018-06-02T12:23:58.557Z,4.60
2018-06-02T12:26:28.629Z,4.20
2018-06-02T12:28:58.904Z,4.30
2018-06-02T12:31:28.643Z,4.93
2018-06-02T12:33:57.849Z,4.60
2018-06-02T12:36:27.353Z,4.30
2018-06-02T12:38:56.836Z,4.47
2018-06-02T12:41:26.037Z,4.40
2018-06-02T12:43:55.556Z,4.28
2018-06-02T12:46:25.025Z,4.37
2018-06-02T12:48:54.591Z,4.72
2018-06-02T12:51:24.140Z,4.85
2018-06-02T12:53:54.490Z,4.55
2018-06-02T12:56:23.684Z,4.22
2018-06-02T12:58:53.161Z,4.00
2018-06-02T13:01:22.648Z,4.53
2018-06-02T13:03:52.117Z,4.30
2018-06-02T13:06:21.329Z,4.30
2018-06-02T13:08:50.767Z,4.40
2018-06-02T13:11:20.357Z,4.10
2018-06-02T13:13:49.589Z,4.10
2018-06-02T13:16:18.841Z,4.15
2018-06-02T13:18:48.497Z,3.83
2018-06-02T13:21:18.052Z,3.62
2018-06-02T13:23:47.592Z,3.85
2018-06-02T13:26:17.841Z,3.00
2018-06-02T13:28:47.057Z,3.15
2018-06-02T13:31:16.565Z,3.65
2018-06-02T13:33:46.148Z,3.28
2018-06-02T13:36:15.368Z,3.00
2018-06-02T13:38:45.490Z,2.65
2018-06-02T13:41:14.820Z,3.20
2018-06-02T13:43:44.060Z,2.80
2018-06-02T13:46:13.609Z,2.80
2018-06-02T13:48:43.201Z,2.95
2018-06-02T13:51:13.757Z,2.78
2018-06-02T13:53:43.265Z,3.30
2018-06-02T13:56:12.669Z,3.85
2018-06-02T13:58:42.188Z,2.70
2018-06-02T14:01:11.425Z,2.45
2018-06-02T14:03:41.001Z,2.50
2018-06-02T14:06:10.239Z,2.85
2018-06-02T14:08:39.444Z,2.80
2018-06-02T14:11:08.656Z,2.80
2018-06-02T14:13:37.905Z,2.47
2018-06-02T14:16:07.393Z,2.17
2018-06-02T14:18:37.063Z,2.60
2018-06-02T14:21:06.264Z,2.20
2018-06-02T14:23:35.472Z,2.10
2018-06-02T14:26:05.008Z,2.30
2018-06-02T14:28:34.546Z,2.25
2018-06-02T14:31:04.032Z,2.30
2018-06-02T14:33:33.566Z,2.42
2018-06-02T14:36:03.936Z,2.35
2018-06-02T14:38:33.476Z,2.35
2018-06-02T14:41:03.448Z,2.45
2018-06-02T14:43:32.940Z,2.22
2018-06-02T14:46:02.197Z,2.30
2018-06-02T14:48:31.744Z,2.08
2018-06-02T14:51:01.253Z,2.47
2018-06-02T14:53:30.865Z,2.30
2018-06-02T14:56:00.359Z,2.25
2018-06-02T14:58:29.870Z,2.30
2018-06-02T15:00:59.187Z,2.25
2018-06-02T15:03:28.884Z,2.03
2018-06-02T15:05:58.363Z,2.00
2018-06-02T15:08:27.568Z,2.28
2018-06-02T15:10:57.224Z,2.00
2018-06-02T15:13:26.770Z,2.30
2018-06-02T15:15:56.328Z,1.80
2018-06-02T15:18:26.394Z,2.42
2018-06-02T15:20:55.782Z,2.62
2018-06-02T15:23:25.424Z,2.87
2018-06-02T15:25:55.193Z,2.87
2018-06-02T15:28:24.709Z,2.87
2018-06-02T15:30:53.919Z,2.53
2018-06-02T15:33:23.573Z,2.33
2018-06-02T15:35:52.784Z,2.78
2018-06-02T15:38:22.323Z,2.40
2018-06-02T15:40:51.538Z,2.05
2018-06-02T15:43:21.036Z,2.17
2018-06-02T15:45:50.944Z,2.17
2018-06-02T15:48:20.409Z,2.12
2018-06-02T15:50:49.969Z,2.62
2018-06-02T15:53:19.277Z,2.50
2018-06-02T15:55:48.799Z,2.22
2018-06-02T15:58:18.232Z,2.47
2018-06-02T16:00:47.458Z,2.50
2018-06-02T16:03:17.019Z,2.17
2018-06-02T16:05:46.631Z,2.10
2018-06-02T16:08:15.976Z,2.60
2018-06-02T16:10:45.523Z,2.53
2018-06-02T16:13:14.994Z,2.15
2018-06-02T16:15:44.561Z,2.10
2018-06-02T16:18:13.772Z,2.25
2018-06-02T16:20:43.932Z,2.20
2018-06-02T16:23:14.193Z,2.30
2018-06-02T16:25:43.400Z,2.30
2018-06-02T16:28:12.952Z,2.35
2018-06-02T16:30:42.174Z,2.30
2018-06-02T16:33:11.644Z,2.50
2018-06-02T16:35:40.848Z,2.33
2018-06-02T16:38:10.084Z,2.05
2018-06-02T16:40:39.655Z,2.05
2018-06-02T16:43:09.353Z,2.20
2018-06-02T16:45:38.884Z,2.20
2018-06-02T16:48:08.989Z,2.33
2018-06-02T16:50:38.188Z,2.42
2018-06-02T16:53:07.828Z,2.30
2018-06-02T16:55:37.334Z,2.37
2018-06-02T16:58:06.628Z,2.37
2018-06-02T17:00:35.837Z,2.42
2018-06-02T17:03:05.338Z,2.50
2018-06-02T17:05:34.640Z,2.60
2018-06-02T17:08:03.844Z,2.70
2018-06-02T17:10:33.045Z,2.85
2018-06-02T17:13:02.578Z,2.33
2018-06-02T17:15:32.002Z,2.42
2018-06-02T17:18:01.288Z,2.60
2018-06-02T17:20:30.693Z,3.00
2018-06-02T17:23:00.187Z,2.55
2018-06-02T17:25:29.678Z,3.00
2018-06-02T17:27:59.175Z,3.00
2018-06-02T17:30:28.381Z,2.85
2018-06-02T17:32:57.584Z,2.50
2018-06-02T17:35:27.654Z,2.40
2018-06-02T17:37:56.932Z,2.33
2018-06-02T17:40:26.520Z,2.12
2018-06-02T17:42:56.537Z,2.55
2018-06-02T17:45:25.976Z,2.28
2018-06-02T17:47:55.478Z,2.00
2018-06-02T17:50:24.925Z,2.28
2018-06-02T17:52:54.481Z,2.22
2018-06-02T17:55:23.984Z,2.50
2018-06-02T17:57:53.494Z,2.30
2018-06-02T18:00:22.700Z,2.60
2018-06-02T18:02:52.828Z,2.42
2018-06-02T18:05:22.528Z,3.47
2018-06-02T18:07:52.047Z,3.15
2018-06-02T18:10:21.576Z,2.92
2018-06-02T18:12:51.620Z,2.47
2018-06-02T18:15:20.825Z,2.80
2018-06-02T18:17:50.301Z,2.60
2018-06-02T18:20:20.023Z,3.40
2018-06-02T18:22:49.232Z,2.58
2018-06-02T18:25:18.805Z,2.60
2018-06-02T18:27:48.169Z,2.35
2018-06-02T18:30:17.461Z,2.45
2018-06-02T18:32:46.668Z,2.47
2018-06-02T18:35:16.250Z,2.90
2018-06-02T18:37:45.689Z,2.87
2018-06-02T18:40:16.001Z,2.83
2018-06-02T18:42:45.573Z,2.80
2018-06-02T18:45:14.800Z,2.65
2018-06-02T18:49:05.908Z,3.10
2018-06-02T18:51:35.226Z,2.83
2018-06-02T18:54:04.649Z,2.70
2018-06-02T18:56:33.800Z,2.65
2018-06-02T18:59:02.815Z,3.05
2018-06-02T19:01:31.598Z,2.95
2018-06-02T19:04:01.268Z,3.17
2018-06-02T19:06:30.389Z,3.20
2018-06-02T19:08:59.560Z,2.85
2018-06-02T19:11:28.801Z,2.85
2018-06-02T19:13:57.712Z,3.20
2018-06-02T19:16:28.099Z,3.20
2018-06-02T19:18:57.248Z,3.77
2018-06-02T19:21:27.184Z,3.53
2018-06-02T19:23:56.421Z,3.80
2018-06-02T19:26:26.460Z,3.27
2018-06-02T19:28:56.096Z,3.10
2018-06-02T19:31:25.320Z,3.05
2018-06-02T19:33:55.006Z,5.97
2018-06-02T19:36:23.744Z,3.58
2018-06-02T19:38:52.566Z,3.80
2018-06-02T19:41:22.692Z,3.83
2018-06-02T19:43:51.921Z,3.45
2018-06-02T19:46:20.975Z,3.90
2018-06-02T19:48:50.388Z,3.42
2018-06-02T19:51:19.948Z,3.17
2018-06-02T19:53:49.672Z,3.37
2018-06-02T19:56:18.561Z,3.47
2018-06-02T19:58:47.517Z,3.80
2018-06-02T20:01:16.216Z,4.03
2018-06-02T20:03:45.424Z,3.97
2018-06-02T20:06:14.172Z,3.70
2018-06-02T20:08:43.029Z,4.10
2018-06-02T20:11:12.044Z,3.90
2018-06-02T20:13:40.688Z,3.67
2018-06-02T20:16:09.924Z,3.80
2018-06-02T20:18:38.972Z,3.43
2018-06-02T20:21:07.693Z,3.57
2018-06-02T20:23:37.651Z,4.10
2018-06-02T20:26:06.764Z,4.43
2018-06-02T20:28:35.672Z,4.03
2018-06-02T20:31:04.972Z,4.10
2018-06-02T20:33:34.328Z,4.10
2018-06-02T20:36:03.587Z,4.20
2018-06-02T20:38:32.584Z,4.07
2018-06-02T20:41:01.789Z,4.10
2018-06-02T20:43:30.913Z,4.40
2018-06-02T20:46:00.185Z,4.40
2018-06-02T20:48:29.899Z,4.53
2018-06-02T20:50:58.510Z,4.30
2018-06-02T20:53:27.386Z,4.10
2018-06-02T20:55:56.273Z,4.50
2018-06-02T20:58:25.121Z,4.30
2018-06-02T21:00:55.129Z,4.23
2018-06-02T21:03:24.415Z,4.63
2018-06-02T21:05:53.733Z,4.23
2018-06-02T21:08:22.732Z,4.70
2018-06-02T21:10:51.736Z,4.37
2018-06-02T21:13:20.624Z,4.20
2018-06-02T21:15:49.825Z,4.77
2018-06-02T21:18:18.829Z,4.80
2018-06-02T21:20:47.825Z,4.53
2018-06-02T21:23:17.260Z,4.70
2018-06-02T21:25:46.675Z,4.60
2018-06-02T21:28:15.836Z,4.90
2018-06-02T21:30:45.362Z,5.20
2018-06-02T21:33:14.452Z,5.07
2018-06-02T21:35:43.700Z,4.93
2018-06-02T21:38:12.413Z,4.63
2018-06-02T21:40:41.349Z,4.40
2018-06-02T21:43:10.436Z,4.47
2018-06-02T21:45:39.404Z,4.27
2018-06-02T21:48:08.664Z,4.67
2018-06-02T21:50:38.005Z,4.90
2018-06-02T21:53:07.132Z,4.50
2018-06-02T21:55:36.145Z,4.73
2018-06-02T21:58:05.084Z,5.00
2018-06-02T22:00:34.460Z,5.17
2018-06-02T22:03:03.476Z,4.63
2018-06-02T22:05:32.715Z,4.83
2018-06-02T22:08:01.622Z,4.77
2018-06-02T22:10:30.277Z,4.87
2018-06-02T22:12:59.152Z,5.20
2018-06-02T22:15:28.197Z,4.57
2018-06-02T22:17:57.090Z,5.30
2018-06-02T22:20:26.694Z,5.00
2018-06-02T22:22:57.576Z,4.90
2018-06-02T22:25:27.356Z,5.03
2018-06-02T22:27:57.473Z,4.70
2018-06-02T22:30:26.572Z,5.37
2018-06-02T22:33:03.625Z,5.20
2018-06-02T22:35:32.804Z,5.13
2018-06-02T22:38:02.089Z,5.90
2018-06-02T22:40:30.896Z,5.77
2018-06-02T22:42:59.628Z,5.50
2018-06-02T22:45:28.946Z,5.10
2018-06-02T22:47:58.200Z,5.17
2018-06-02T22:50:27.456Z,5.43
2018-06-02T22:52:57.045Z,4.77
2018-06-02T22:55:26.992Z,5.37
2018-06-02T22:57:57.196Z,4.87
2018-06-02T23:00:28.058Z,5.20
2018-06-02T23:02:56.963Z,5.40
2018-06-02T23:05:27.785Z,5.10
2018-06-02T23:07:56.977Z,4.90
2018-06-02T23:10:26.688Z,5.00
2018-06-02T23:12:55.748Z,5.40
2018-06-02T23:15:25.072Z,5.53
2018-06-02T23:17:54.124Z,5.27
2018-06-02T23:20:24.012Z,5.10
2018-06-02T23:22:53.516Z,5.57
2018-06-02T23:25:22.657Z,5.30
2018-06-02T23:27:51.796Z,5.57
2018-06-02T23:30:20.960Z,5.47
2018-06-02T23:32:50.672Z,5.73
2018-06-02T23:35:19.892Z,5.93
2018-06-02T23:37:49.204Z,5.77
2018-06-02T23:40:18.280Z,5.30
2018-06-02T23:42:47.464Z,5.67
2018-06-02T23:45:16.600Z,5.57
2018-06-02T23:47:45.700Z,6.03
2018-06-02T23:50:15.348Z,5.50
2018-06-02T23:52:44.596Z,5.73
2018-06-02T23:55:13.796Z,5.37
2018-06-02T23:57:42.973Z,5.33
